Edward Cunningham

Olheiro-Chefe - Brentford
4 Jun 2028
Domingo
Processo

Personalidade

Adaptabilidade (13) Ambição (5) Controvérsia (13) Lealdade (16) Pressão (19) Profissionalismo (16) Espírito Esportivo (9) Temperamento (14)

Perfil

Estilo de Treinamento Democrático
Licença Continental Pro
Determinação 11
Gestão de Pessoas 9
Motivação 14
Disciplina 7
Satisfação no Trabalho
100%
Fadiga
0%
Função Olheiro-Chefe
Salário 60.3K p/s
Contrato 14.03.2030

Desempenho

Comportamento Bom
Eficácia do Treinamento
45%
Desenvolvimento do Jogador
25%
Prevenção de Lesões
55%
Implementação Tática
35%

Eventos Recentes

Avaliou um jogador agora
Avaliou um jogador agora

Monitorando agora

100
Jogador Clube Status Habilidade Confiança Observado Última observação Último voto
Miguel Figueiredo Benfica Ativo 118 / 123 40% 7 03.06.2028 -
Simone Kosijer Triestina Ativo 110 / 102 40% 2 03.06.2028 -
T-Jay Parfitt Colchester United Ativo 89 / 100 40% 1 03.06.2028 -
Jens Mathijsen Willem II Ativo 118 / 119 40% 1 02.06.2028 -
Myles Lewis-Skelly Arsenal Ativo 154 / 153 40% 1 02.06.2028 -
Afriyie Sulemana Hasaacas Ativo 92 / 91 40% 1 02.06.2028 -
Germán Berterame Newcastle United Perdido 141 / 145 69% 1 01.06.2028 -
Martim Cunha Porto Ativo 106 / 107 40% 4 29.01.2028 -
Markus Walker FC Midtjylland Ativo 115 / 117 40% 1 29.01.2028 -
Finn Jeltsch VfB Stuttgart Ativo 147 / 157 40% 3 17.01.2028 -
Lennon Miller Udinese Ativo 138 / 134 40% 1 17.01.2028 -
Jorrel Hato Chelsea Ativo 147 / 168 40% 1 17.01.2028 -
Edmund Baidoo Borussia Dortmund Ativo 136 / 131 40% 2 10.01.2028 -
Drew Baiera New York City Ativo 97 / 85 40% 1 10.01.2028 -
Gopolang Taunyane Ajax Cape Town Ativo 106 / 108 40% 1 04.01.2028 -
Rafael Vargas Cortulua Ativo 96 / 106 40% 1 04.01.2028 -
Saeed Abdulrahman Al Shabab Ativo 93 / 89 40% 1 23.08.2027 -
Gift Udoh Ikorodu City Ativo 87 / 104 40% 1 16.08.2027 -
Alessandro Ventre Vis Pesaro Ativo 92 / 104 40% 1 16.08.2027 -
Victor Martinez Atletico Venezuela Ativo 78 / 111 40% 1 11.08.2027 -
Harbor Miller LA Galaxy Ativo 93 / 109 40% 1 11.08.2027 -
Christ Inao Oulaï Fiorentina Ativo 140 / 151 40% 2 10.08.2027 -
Mattia Mannini Juve Stabia Ativo 108 / 128 40% 1 10.08.2027 -
Ryan Oné Sheffield United Ativo 110 / 130 40% 2 09.08.2027 -
Dylan Lawlor Cardiff City Ativo 121 / 113 40% 2 09.08.2027 -
Mattia Puzone Siracusa Ativo 105 / 97 40% 1 09.08.2027 -
Mohamadou Kanté West Ham United Ativo 129 / 121 40% 1 09.08.2027 -
Kazunari Kita Real Sociedad Ativo 101 / 107 40% 3 07.08.2027 -
Teo Rodríguez Pagano San Lorenzo Ativo 125 / 131 40% 1 07.08.2027 -
Eliás Montiel Athletic Bilbao Ativo 132 / 140 40% 3 06.08.2027 -
Gady Beyuku Modena Ativo 118 / 112 40% 2 05.08.2027 -
Jaydee Canvot Crystal Palace Ativo 132 / 130 40% 6 04.08.2027 -
Riley Owen Bristol Rovers Ativo 101 / 99 40% 1 02.08.2027 -
Joe Knight Stevenage Ativo 96 / 97 40% 2 01.08.2027 -
Daniel Banjaqui Benfica Ativo 125 / 141 40% 3 30.07.2027 -
Ezra Mayers West Ham United Ativo 124 / 113 40% 4 29.07.2027 -
Caleb Yirenkyi Coventry City Ativo 136 / 142 40% 2 29.07.2027 -
Jan Bürger Preston Ativo 120 / 124 40% 2 25.07.2027 -
Elias Baum Eintracht Frankfurt Ativo 125 / 140 40% 3 23.07.2027 -
Jenson Jones Peterborough United Ativo 100 / 88 40% 2 23.07.2027 -
Davide Bartesaghi AC Milan Ativo 140 / 127 40% 1 18.07.2027 -
Rhys Chadwick Peterborough United Ativo 100 / 104 40% 1 15.07.2027 -
Federico Coletta Benfica Ativo 92 / 117 40% 1 08.07.2027 -
Joseph Opoku Swansea City Ativo 112 / 133 40% 1 02.07.2027 -
Ismaël Baouf Cambuur Ativo 123 / 113 40% 1 01.07.2027 -
Axel Tape Bayer Leverkusen Ativo 130 / 123 40% 2 29.06.2027 -
Kirill Glebov CSKA Moscow Ativo 135 / 147 40% 2 28.06.2027 -
Fabián Correa Barranquilla Ativo 78 / 76 40% 1 28.06.2027 -
Nikita Posmashny Chaika Ativo 83 / 91 40% 1 25.06.2027 -
Borna Knezović Casarano Ativo 110 / 116 40% 1 25.06.2027 -
Isaac Moore Leganés Ativo 86 / 99 40% 1 23.06.2027 -
Eric Klein FC Cincinnati Ativo 105 / 83 40% 1 23.06.2027 -
Ollie Scarles West Ham United Ativo 135 / 121 40% 2 22.06.2027 -
Harley Mills Peterborough United Ativo 106 / 110 40% 2 20.06.2027 -
Sabil Hansen Randers Ativo 102 / 118 40% 1 19.06.2027 -
Sheriff Amuda Shooting Stars Ativo 92 / 102 40% 1 19.06.2027 -
Souza Tottenham Ativo 118 / 142 40% 5 18.06.2027 -
Gonçalo Sousa Porto Ativo 123 / 122 40% 1 18.06.2027 -
Mohamed Bolivar Barranquilla Ativo 76 / 110 40% 1 16.06.2027 -
Marvin Ducksch Birmingham Ativo 123 / 135 69% 1 14.06.2027 Aprovar
Olti Hyseni Brondby Ativo 109 / 108 40% 1 14.06.2027 -
Rabby Nzingoula West Bromwich Albion Ativo 122 / 125 40% 1 12.06.2027 Mais informações
Mads Abrahamsen Saturn Ativo 94 / 81 40% 1 07.06.2027 -
Ifeanyi Okechukwu Nasarawa United Ativo 91 / 92 40% 1 05.06.2027 -
Taras Mykhavko Dynamo Kyiv Ativo 130 / 125 40% 1 25.01.2027 Mais informações
Ayyoub Bouaddi Manchester City Ativo 126 / 144 40% 2 22.01.2027 -
Luke Baartman Ghazl El Mahalla Ativo 113 / 90 40% 1 22.01.2027 -
Sidiki Chérif Coventry City Ativo 119 / 118 40% 1 19.01.2027 -
Rocco Vata Watford Ativo 118 / 123 40% 1 19.01.2027 -
Kasra Taheri Foolad Ativo 119 / 123 40% 1 19.01.2027 -
Will Lankshear Middlesbrough Ativo 120 / 118 40% 2 18.01.2027 -
Charlie Lennon Barnsley Ativo 74 / 96 40% 1 18.01.2027 -
Philip Onyedika MFK Skalica Ativo 80 / 86 40% 1 15.01.2027 -
Luciano Inverso Valencia Ativo 104 / 109 40% 2 14.01.2027 -
Abeiku Boateng WAFA Ativo 78 / 85 40% 1 14.01.2027 -
Yaghoub Barage Persepolis Ativo 99 / 105 40% 2 13.01.2027 -
Elie N'Gatta Sochaux Ativo 85 / 110 40% 1 13.01.2027 -
Lorenzo De Leo Renate Ativo 101 / 89 40% 1 11.01.2027 -
Dylan Salvo Defensores Unidos Ativo 96 / 124 40% 2 09.01.2027 -
Rayan Bournemouth Ativo 137 / 143 40% 1 09.01.2027 -
Hernán Taborda Talleres Ativo 99 / 114 40% 1 09.01.2027 -
Juan Pablo De la Reta Maipú Ativo 101 / 119 40% 1 07.01.2027 -
Jerónimo Russo Newell's Old Boys Ativo 95 / 86 40% 2 05.01.2027 -
Ignacio Perruzzi San Lorenzo Ativo 131 / 137 40% 2 05.01.2027 -
Honest Ahanor Fiorentina Ativo 123 / 133 40% 1 05.01.2027 -
Lucas Agazzi Benfica Ativo 127 / 134 40% 1 04.01.2027 -
Juan Giménez Athletic Bilbao Ativo 120 / 129 40% 1 02.01.2027 -
Marvin Kaleta Rotherham United Ativo 100 / 105 40% 1 31.08.2026 Mais informações
George Brown Sheffield Wednesday Ativo 93 / 112 40% 1 24.08.2026 -
Ezekiel Kwame Alladoh Philadelphia Union Ativo 122 / 104 40% 3 22.08.2026 -
Darren Yapi Colorado Rapids Ativo 93 / 96 40% 1 15.08.2026 -
Leo Castledine Middlesbrough Ativo 130 / 130 40% 1 13.08.2026 Mais informações
Stefanos Tzimas Brighton Ativo 131 / 134 40% 1 12.08.2026 -
Williams Yikat Katsina United Ativo 77 / 83 40% 1 12.08.2026 -
Seymour Reid New York City Ativo 91 / 90 40% 1 12.08.2026 -
Umar Ada Nasarawa United Ativo 92 / 100 40% 1 11.08.2026 -
Alex Harris Colorado Rapids Ativo 104 / 94 40% 1 11.08.2026 -
Luca Bombino San Diego Football Club Ativo 98 / 127 40% 1 04.08.2026 -
Emmanuel Mathias Ikorodu City Ativo 100 / 102 40% 1 03.08.2026 -
Oladimeji Dada Ikorodu City Ativo 85 / 89 40% 1 01.08.2026 -